Time,TemperatureF,DewpointF,PressureIn,WindDirection,WindDirectionDegrees,WindSpeedMPH,WindSpeedGustMPH,Humidity,HourlyPrecipIn,Conditions,Clouds,dailyrainin,SoftwareType,DateUTC
2013-08-27 00:00:00,66.3,62.3,30.18,North,0,0.0,0.0,87,0.00,,SKC,0.00,VWS V14.01,2013-08-27 04:00:00,
2013-08-27 00:30:00,65.9,62.2,30.18,North,0,0.0,0.0,88,0.00,,SKC,0.00,VWS V14.01,2013-08-27 04:30:00,
2013-08-27 01:00:00,65.7,62.0,30.18,North,0,0.0,0.0,88,0.00,,SKC,0.00,VWS V14.01,2013-08-27 05:00:00,
2013-08-27 01:30:00,65.5,61.9,30.17,North,0,0.0,0.0,88,0.00,,SKC,0.00,VWS V14.01,2013-08-27 05:30:00,
2013-08-27 02:00:00,65.1,61.8,30.17,North,0,0.0,0.0,89,0.00,,SKC,0.00,VWS V14.01,2013-08-27 06:00:00,
2013-08-27 02:30:00,64.1,61.1,30.16,North,0,0.0,0.0,90,0.00,,SKC,0.00,VWS V14.01,2013-08-27 06:30:00,
2013-08-27 03:00:00,63.8,60.5,30.15,North,0,0.0,0.0,89,0.00,,SKC,0.00,VWS V14.01,2013-08-27 07:00:00,
2013-08-27 03:30:00,63.6,60.3,30.15,North,0,0.0,0.0,89,0.00,,SKC,0.00,VWS V14.01,2013-08-27 07:30:00,
2013-08-27 04:00:00,63.3,60.0,30.14,North,0,0.0,0.0,89,0.00,,SKC,0.00,VWS V14.01,2013-08-27 08:00:00,
2013-08-27 04:30:00,63.0,59.7,30.14,North,0,0.0,0.0,89,0.00,,SKC,0.00,VWS V14.01,2013-08-27 08:30:00,
2013-08-27 05:00:00,62.7,59.4,30.13,North,0,0.0,0.0,89,0.00,,SKC,0.00,VWS V14.01,2013-08-27 09:00:00,
2013-08-27 05:30:00,62.6,59.0,30.13,North,0,0.0,0.0,88,0.00,,SKC,0.00,VWS V14.01,2013-08-27 09:30:00,
2013-08-27 06:00:00,62.5,58.9,30.13,North,0,0.0,0.0,88,0.00,,SKC,0.00,VWS V14.01,2013-08-27 10:00:00,
2013-08-27 06:30:00,62.5,58.6,30.13,North,0,0.0,0.0,87,0.00,,SKC,0.00,VWS V14.01,2013-08-27 10:30:00,
2013-08-27 07:00:00,62.8,59.2,30.13,North,0,0.0,0.0,88,0.00,,SKC,0.00,VWS V14.01,2013-08-27 11:00:00,
2013-08-27 07:30:00,62.8,59.2,30.13,North,0,0.0,0.0,88,0.00,,SKC,0.00,VWS V14.01,2013-08-27 11:30:00,
2013-08-27 08:00:00,63.9,60.6,30.13,North,0,0.0,0.0,89,0.00,,SKC,0.00,VWS V14.01,2013-08-27 12:00:00,
2013-08-27 08:30:00,66.4,63.1,30.13,ENE,68,0.0,0.0,89,0.00,,---,0.00,VWS V14.01,2013-08-27 12:30:00,
2013-08-27 08:52:00,67.7,63.7,30.13,WNW,291,0.0,0.0,87,0.00,,SKC,0.00,VWS V14.01,2013-08-27 12:52:00,
2013-08-27 08:57:00,67.9,63.9,30.13,NW,306,0.0,0.0,87,0.00,,SKC,0.00,VWS V14.01,2013-08-27 12:57:00,
2013-08-27 09:00:00,67.9,63.9,30.13,ENE,68,0.0,0.0,87,0.00,,---,0.00,VWS V14.01,2013-08-27 13:00:00,
2013-08-27 09:09:00,68.4,64.1,30.13,NW,304,0.0,0.0,86,0.00,,SKC,0.00,VWS V14.01,2013-08-27 13:09:00,
2013-08-27 09:15:00,69.0,64.6,30.13,WNW,283,0.0,0.0,86,0.00,,SKC,0.00,VWS V14.01,2013-08-27 13:15:00,
2013-08-27 09:20:00,69.8,65.1,30.13,West,281,0.0,0.0,85,0.00,,SKC,0.00,VWS V14.01,2013-08-27 13:20:00,
2013-08-27 09:26:00,70.6,65.2,30.12,West,281,0.0,0.0,83,0.00,,SKC,0.00,VWS V14.01,2013-08-27 13:26:00,
2013-08-27 09:30:00,71.0,65.6,30.12,ENE,68,0.0,0.0,83,0.00,,---,0.00,VWS V14.01,2013-08-27 13:30:00,
2013-08-27 09:31:00,71.3,65.9,30.12,West,281,0.0,0.0,83,0.00,,SKC,0.00,VWS V14.01,2013-08-27 13:31:00,
2013-08-27 09:37:00,72.1,65.6,30.12,West,281,0.0,0.0,80,0.00,,SKC,0.00,VWS V14.01,2013-08-27 13:37:00,
2013-08-27 09:42:00,72.9,66.4,30.12,West,281,0.0,0.0,80,0.00,,SKC,0.00,VWS V14.01,2013-08-27 13:42:00,
2013-08-27 09:47:00,73.4,66.1,30.12,WNW,285,0.0,0.0,78,0.00,,SKC,0.00,VWS V14.01,2013-08-27 13:47:00,
2013-08-27 09:53:00,74.1,66.4,30.12,WNW,285,0.0,0.0,77,0.00,,SKC,0.00,VWS V14.01,2013-08-27 13:53:00,
2013-08-27 09:58:00,74.8,66.7,30.12,WNW,285,0.0,0.0,76,0.00,,SKC,0.00,VWS V14.01,2013-08-27 13:58:00,
2013-08-27 10:00:00,74.8,66.7,30.12,ENE,68,0.0,0.0,76,0.00,,---,0.00,VWS V14.01,2013-08-27 14:00:00,
2013-08-27 10:04:00,75.3,66.1,30.12,WNW,282,0.0,0.0,73,0.00,,SKC,0.00,VWS V14.01,2013-08-27 14:04:00,
2013-08-27 10:09:00,76.2,67.7,30.12,WNW,283,0.0,0.0,75,0.00,,SKC,0.00,VWS V14.01,2013-08-27 14:09:00,
2013-08-27 10:15:00,76.8,66.3,30.12,West,281,0.0,0.0,70,0.00,,SKC,0.00,VWS V14.01,2013-08-27 14:15:00,
2013-08-27 10:20:00,77.1,67.4,30.12,WNW,283,0.0,0.0,72,0.00,,SKC,0.00,VWS V14.01,2013-08-27 14:20:00,
2013-08-27 10:25:00,77.3,66.8,30.12,WNW,291,0.0,0.0,70,0.00,,SKC,0.00,VWS V14.01,2013-08-27 14:25:00,
2013-08-27 10:30:00,77.3,66.3,30.11,ENE,68,0.0,0.0,69,0.00,,---,0.00,VWS V14.01,2013-08-27 14:30:00,
2013-08-27 10:31:00,77.3,66.8,30.12,ESE,118,0.0,0.0,70,0.00,,SKC,0.00,VWS V14.01,2013-08-27 14:31:00,
2013-08-27 10:36:00,78.0,67.4,30.12,North,7,0.0,0.0,70,0.00,,SKC,0.00,VWS V14.01,2013-08-27 14:36:00,
2013-08-27 10:42:00,78.5,67.5,30.12,SE,133,0.0,0.0,69,0.00,,SKC,0.00,VWS V14.01,2013-08-27 14:42:00,
2013-08-27 10:47:00,79.2,67.3,30.12,West,281,0.0,0.0,67,0.00,,SKC,0.00,VWS V14.01,2013-08-27 14:47:00,
2013-08-27 10:53:00,79.7,67.8,30.12,SSE,150,0.0,0.0,67,0.00,,SKC,0.00,VWS V14.01,2013-08-27 14:53:00,
2013-08-27 10:58:00,79.9,68.0,30.11,ENE,70,0.0,0.0,67,0.00,,SKC,0.00,VWS V14.01,2013-08-27 14:58:00,
2013-08-27 11:00:00,79.9,68.0,30.11,ENE,68,0.0,0.0,67,0.00,,---,0.00,VWS V14.01,2013-08-27 15:00:00,
2013-08-27 11:03:00,80.0,68.5,30.12,West,272,0.0,0.0,68,0.00,,SKC,0.00,VWS V14.01,2013-08-27 15:03:00,
2013-08-27 11:09:00,79.5,68.0,30.12,WNW,295,0.0,0.0,68,0.00,,SKC,0.00,VWS V14.01,2013-08-27 15:09:00,
2013-08-27 11:14:00,79.3,68.3,30.12,ESE,121,0.0,0.0,69,0.00,,SKC,0.00,VWS V14.01,2013-08-27 15:14:00,
2013-08-27 11:20:00,79.5,67.6,30.12,East,84,0.0,0.0,67,0.00,,SKC,0.00,VWS V14.01,2013-08-27 15:20:00,
2013-08-27 11:25:00,79.5,67.6,30.11,WNW,288,0.0,0.0,67,0.00,,SKC,0.00,VWS V14.01,2013-08-27 15:25:00,
2013-08-27 11:30:00,79.4,67.5,30.11,WNW,293,0.0,0.0,67,0.00,,SKC,0.00,VWS V14.01,2013-08-27 15:30:00,
2013-08-27 11:36:00,79.0,67.1,30.11,WNW,283,0.0,0.0,67,0.00,,SKC,0.00,VWS V14.01,2013-08-27 15:36:00,
2013-08-27 11:41:00,79.1,68.1,30.11,SE,142,0.0,0.0,69,0.00,,SKC,0.00,VWS V14.01,2013-08-27 15:41:00,
2013-08-27 11:47:00,79.7,68.6,30.11,ENE,74,0.0,0.0,69,0.00,,SKC,0.00,VWS V14.01,2013-08-27 15:47:00,
2013-08-27 11:52:00,80.3,68.8,30.11,East,79,0.0,0.0,68,0.00,,SKC,0.00,VWS V14.01,2013-08-27 15:52:00,
2013-08-27 11:58:00,80.4,67.6,30.11,West,271,0.0,0.0,65,0.00,,SKC,0.00,VWS V14.01,2013-08-27 15:58:00,
2013-08-27 12:00:00,80.3,67.5,30.11,ENE,68,0.0,0.0,65,0.00,,---,0.00,VWS V14.01,2013-08-27 16:00:00,
2013-08-27 12:03:00,80.1,67.3,30.11,ESE,103,0.0,0.0,65,0.00,,SKC,0.00,VWS V14.01,2013-08-27 16:03:00,
2013-08-27 12:08:00,80.5,67.2,30.11,ESE,112,0.0,0.0,64,0.00,,SKC,0.00,VWS V14.01,2013-08-27 16:08:00,
2013-08-27 12:14:00,80.9,67.1,30.11,ESE,110,0.0,0.0,63,0.00,,SKC,0.00,VWS V14.01,2013-08-27 16:14:00,
2013-08-27 12:19:00,81.2,66.9,30.11,ESE,113,0.0,0.0,62,0.00,,SKC,0.00,VWS V14.01,2013-08-27 16:19:00,
2013-08-27 12:25:00,81.5,68.2,30.11,East,88,0.0,0.0,64,0.00,,SKC,0.00,VWS V14.01,2013-08-27 16:25:00,
2013-08-27 12:30:00,81.6,68.2,30.11,SE,125,0.0,0.0,64,0.00,,SKC,0.00,VWS V14.01,2013-08-27 16:30:00,
2013-08-27 12:36:00,81.4,68.5,30.10,West,276,0.0,0.0,65,0.00,,SKC,0.00,VWS V14.01,2013-08-27 16:36:00,
2013-08-27 12:41:00,81.4,66.7,30.10,East,86,0.0,0.0,61,0.00,,SKC,0.00,VWS V14.01,2013-08-27 16:41:00,
2013-08-27 12:46:00,81.8,68.9,30.10,SE,125,0.0,0.0,65,0.00,,SKC,0.00,VWS V14.01,2013-08-27 16:46:00,
2013-08-27 12:52:00,82.3,67.0,30.10,West,274,0.0,0.0,60,0.00,,SKC,0.00,VWS V14.01,2013-08-27 16:52:00,
2013-08-27 12:57:00,82.1,65.9,30.10,West,277,0.0,0.0,58,0.00,,SKC,0.00,VWS V14.01,2013-08-27 16:57:00,
2013-08-27 13:00:00,82.1,66.4,30.10,ENE,68,0.0,0.0,59,0.00,,---,0.00,VWS V14.01,2013-08-27 17:00:00,
2013-08-27 13:03:00,82.1,64.3,30.10,West,276,0.0,0.0,55,0.00,,SKC,0.00,VWS V14.01,2013-08-27 17:03:00,
2013-08-27 13:08:00,82.3,65.6,30.10,West,277,0.0,0.0,57,0.00,,SKC,0.00,VWS V14.01,2013-08-27 17:08:00,
2013-08-27 13:13:00,82.8,64.5,30.09,East,97,0.0,0.0,54,0.00,,SKC,0.00,VWS V14.01,2013-08-27 17:13:00,
2013-08-27 13:19:00,82.9,65.6,30.09,ENE,75,0.0,0.0,56,0.00,,SKC,0.00,VWS V14.01,2013-08-27 17:19:00,
2013-08-27 13:24:00,82.9,64.6,30.09,NE,51,0.0,0.0,54,0.00,,SKC,0.00,VWS V14.01,2013-08-27 17:24:00,
2013-08-27 13:30:00,83.5,64.6,30.09,WNW,284,0.0,0.0,53,0.00,,SKC,0.00,VWS V14.01,2013-08-27 17:30:00,
2013-08-27 13:35:00,84.1,67.2,30.08,West,262,0.0,0.0,57,0.00,,SKC,0.00,VWS V14.01,2013-08-27 17:35:00,
2013-08-27 13:41:00,85.3,66.8,30.08,WNW,290,0.0,0.0,54,0.00,,SKC,0.00,VWS V14.01,2013-08-27 17:41:00,
2013-08-27 13:46:00,86.0,68.5,30.08,West,274,0.0,0.0,56,0.00,,SKC,0.00,VWS V14.01,2013-08-27 17:46:00,
2013-08-27 13:51:00,86.6,69.1,30.08,West,274,0.0,0.0,56,0.00,,SKC,0.00,VWS V14.01,2013-08-27 17:51:00,
2013-08-27 13:57:00,87.0,65.6,30.08,WNW,301,0.0,0.0,49,0.00,,SKC,0.00,VWS V14.01,2013-08-27 17:57:00,
2013-08-27 14:00:00,87.2,66.3,30.08,ENE,68,0.0,0.0,50,0.00,,---,0.00,VWS V14.01,2013-08-27 18:00:00,
2013-08-27 14:02:00,88.0,68.2,30.08,West,263,0.0,0.0,52,0.00,,SKC,0.00,VWS V14.01,2013-08-27 18:02:00,
2013-08-27 14:08:00,88.3,66.1,30.08,NW,316,0.0,0.0,48,0.00,,SKC,0.00,VWS V14.01,2013-08-27 18:08:00,
2013-08-27 14:13:00,88.5,65.1,30.08,West,281,0.0,0.0,46,0.00,,SKC,0.00,VWS V14.01,2013-08-27 18:13:00,
2013-08-27 14:19:00,87.9,65.8,30.08,WNW,288,0.0,0.0,48,0.00,,SKC,0.00,VWS V14.01,2013-08-27 18:19:00,
2013-08-27 14:24:00,88.9,67.3,30.08,WSW,239,0.0,0.0,49,0.00,,SKC,0.00,VWS V14.01,2013-08-27 18:24:00,
2013-08-27 14:29:00,89.7,68.0,30.07,WSW,239,0.0,0.0,49,0.00,,SKC,0.00,VWS V14.01,2013-08-27 18:29:00,
2013-08-27 14:30:00,89.6,67.9,30.07,ENE,68,0.0,0.0,49,0.00,,---,0.00,VWS V14.01,2013-08-27 18:30:00,
2013-08-27 14:35:00,90.6,66.4,30.07,WSW,239,0.0,0.0,45,0.00,,SKC,0.00,VWS V14.01,2013-08-27 18:35:00,
2013-08-27 14:40:00,90.6,65.7,30.07,East,79,0.0,0.0,44,0.00,,SKC,0.00,VWS V14.01,2013-08-27 18:40:00,
2013-08-27 14:46:00,90.1,64.6,30.06,East,79,0.0,0.0,43,0.00,,SKC,0.00,VWS V14.01,2013-08-27 18:46:00,
2013-08-27 14:51:00,88.6,66.4,30.06,East,79,0.0,0.0,48,0.00,,SKC,0.00,VWS V14.01,2013-08-27 18:51:00,
2013-08-27 14:56:00,88.0,68.2,30.06,East,79,0.0,0.0,52,0.00,,SKC,0.00,VWS V14.01,2013-08-27 18:56:00,
2013-08-27 15:00:00,88.0,65.3,30.06,ENE,68,0.0,0.0,47,0.00,,---,0.00,VWS V14.01,2013-08-27 19:00:00,
2013-08-27 15:02:00,87.7,65.6,30.06,WSW,248,0.0,0.0,48,0.00,,SKC,0.00,VWS V14.01,2013-08-27 19:02:00,
2013-08-27 15:07:00,87.6,62.4,30.05,ESE,108,0.0,0.0,43,0.00,,SKC,0.00,VWS V14.01,2013-08-27 19:07:00,
2013-08-27 15:13:00,88.3,64.3,30.05,ESE,115,0.0,0.0,45,0.00,,SKC,0.00,VWS V14.01,2013-08-27 19:13:00,
2013-08-27 15:18:00,89.8,66.3,30.05,ESE,115,0.0,0.0,46,0.00,,SKC,0.00,VWS V14.01,2013-08-27 19:18:00,
2013-08-27 15:24:00,90.3,64.1,30.05,ESE,104,0.0,0.0,42,0.00,,SKC,0.00,VWS V14.01,2013-08-27 19:24:00,
2013-08-27 15:29:00,89.6,62.1,30.05,ESE,116,0.0,0.0,40,0.00,,SKC,0.00,VWS V14.01,2013-08-27 19:29:00,
2013-08-27 15:30:00,89.6,62.1,30.05,ENE,68,0.0,0.0,40,0.00,,---,0.00,VWS V14.01,2013-08-27 19:30:00,
2013-08-27 15:34:00,90.1,63.9,30.05,East,84,0.0,0.0,42,0.00,,SKC,0.00,VWS V14.01,2013-08-27 19:34:00,
2013-08-27 15:40:00,90.6,65.1,30.04,East,83,0.0,0.0,43,0.00,,SKC,0.00,VWS V14.01,2013-08-27 19:40:00,
2013-08-27 15:45:00,90.5,63.6,30.04,SE,129,0.0,0.0,41,0.00,,SKC,0.00,VWS V14.01,2013-08-27 19:45:00,
2013-08-27 15:51:00,90.2,62.6,30.04,ESE,103,0.0,0.0,40,0.00,,SKC,0.00,VWS V14.01,2013-08-27 19:51:00,
2013-08-27 15:56:00,90.0,63.8,30.04,ESE,102,0.0,0.0,42,0.00,,SKC,0.00,VWS V14.01,2013-08-27 19:56:00,
2013-08-27 16:00:00,90.0,66.5,30.04,ENE,68,0.0,0.0,46,0.00,,---,0.00,VWS V14.01,2013-08-27 20:00:00,
2013-08-27 16:02:00,90.1,63.2,30.04,West,270,0.0,0.0,41,0.00,,SKC,0.00,VWS V14.01,2013-08-27 20:02:00,
2013-08-27 16:07:00,89.2,65.7,30.03,West,268,0.0,0.0,46,0.00,,SKC,0.00,VWS V14.01,2013-08-27 20:07:00,
2013-08-27 16:12:00,89.4,67.1,30.03,West,269,0.0,0.0,48,0.00,,SKC,0.00,VWS V14.01,2013-08-27 20:12:00,
2013-08-27 16:18:00,89.5,67.8,30.03,WSW,256,0.0,0.0,49,0.00,,SKC,0.00,VWS V14.01,2013-08-27 20:18:00,
2013-08-27 16:23:00,89.5,67.8,30.03,SSW,200,0.0,0.0,49,0.00,,SKC,0.00,VWS V14.01,2013-08-27 20:23:00,
2013-08-27 16:29:00,89.2,67.6,30.03,East,89,0.0,0.0,49,0.00,,SKC,0.00,VWS V14.01,2013-08-27 20:29:00,
2013-08-27 16:30:00,89.2,67.6,30.03,ENE,68,0.0,0.0,49,0.00,,---,0.00,VWS V14.01,2013-08-27 20:30:00,
2013-08-27 16:34:00,88.7,67.1,30.03,West,259,0.0,0.0,49,0.00,,SKC,0.00,VWS V14.01,2013-08-27 20:34:00,
2013-08-27 16:40:00,87.8,68.0,30.03,West,259,0.0,0.0,52,0.00,,SKC,0.00,VWS V14.01,2013-08-27 20:40:00,
2013-08-27 16:45:00,87.5,66.6,30.03,South,184,0.0,0.0,50,0.00,,SKC,0.00,VWS V14.01,2013-08-27 20:45:00,
2013-08-27 16:50:00,87.1,65.6,30.03,WSW,242,0.0,0.0,49,0.00,,SKC,0.00,VWS V14.01,2013-08-27 20:50:00,
2013-08-27 16:56:00,86.3,66.1,30.03,SW,226,0.0,0.0,51,0.00,,SKC,0.00,VWS V14.01,2013-08-27 20:56:00,
2013-08-27 17:00:00,85.9,66.2,30.03,ENE,68,0.0,0.0,52,0.00,,---,0.00,VWS V14.01,2013-08-27 21:00:00,
2013-08-27 17:01:00,85.5,66.4,30.03,West,274,0.0,0.0,53,0.00,,SKC,0.00,VWS V14.01,2013-08-27 21:01:00,
2013-08-27 17:07:00,84.8,66.3,30.03,West,259,0.0,0.0,54,0.00,,SKC,0.00,VWS V14.01,2013-08-27 21:07:00,
2013-08-27 17:12:00,84.4,65.4,30.03,South,189,0.0,0.0,53,0.00,,SKC,0.00,VWS V14.01,2013-08-27 21:12:00,
2013-08-27 17:17:00,84.0,65.1,30.03,East,94,0.0,0.0,53,0.00,,SKC,0.00,VWS V14.01,2013-08-27 21:17:00,
2013-08-27 17:23:00,83.5,65.7,30.03,SSE,149,0.0,0.0,55,0.00,,SKC,0.00,VWS V14.01,2013-08-27 21:23:00,
2013-08-27 17:28:00,83.5,67.2,30.03,SSE,149,0.0,0.0,58,0.00,,SKC,0.00,VWS V14.01,2013-08-27 21:28:00,
2013-08-27 17:30:00,83.6,67.8,30.03,ENE,68,0.0,0.0,59,0.00,,---,0.00,VWS V14.01,2013-08-27 21:30:00,
2013-08-27 17:34:00,83.8,67.0,30.03,South,189,0.0,0.0,57,0.00,,SKC,0.00,VWS V14.01,2013-08-27 21:34:00,
2013-08-27 17:39:00,83.9,66.0,30.03,SW,229,0.0,0.0,55,0.00,,SKC,0.00,VWS V14.01,2013-08-27 21:39:00,
2013-08-27 17:45:00,83.9,66.0,30.03,West,262,0.0,0.0,55,0.00,,SKC,0.00,VWS V14.01,2013-08-27 21:45:00,
2013-08-27 17:50:00,83.9,66.5,30.03,SE,136,0.0,0.0,56,0.00,,SKC,0.00,VWS V14.01,2013-08-27 21:50:00,
2013-08-27 17:55:00,83.8,67.0,30.03,SE,128,0.0,0.0,57,0.00,,SKC,0.00,VWS V14.01,2013-08-27 21:55:00,
2013-08-27 18:00:00,83.8,66.4,30.03,ENE,68,0.0,0.0,56,0.00,,---,0.00,VWS V14.01,2013-08-27 22:00:00,
2013-08-27 18:01:00,83.7,66.3,30.03,SSW,201,0.0,0.0,56,0.00,,SKC,0.00,VWS V14.01,2013-08-27 22:01:00,
2013-08-27 18:06:00,83.7,66.3,30.03,South,191,0.0,0.0,56,0.00,,SKC,0.00,VWS V14.01,2013-08-27 22:06:00,
2013-08-27 18:12:00,83.7,66.9,30.03,SSW,193,0.0,0.0,57,0.00,,SKC,0.00,VWS V14.01,2013-08-27 22:12:00,
2013-08-27 18:17:00,83.4,67.1,30.03,South,173,0.0,0.0,58,0.00,,SKC,0.00,VWS V14.01,2013-08-27 22:17:00,
2013-08-27 18:23:00,83.1,66.8,30.03,South,173,0.0,0.0,58,0.00,,SKC,0.00,VWS V14.01,2013-08-27 22:23:00,
2013-08-27 18:28:00,82.9,67.6,30.03,South,173,0.0,0.0,60,0.00,,SKC,0.00,VWS V14.01,2013-08-27 22:28:00,
2013-08-27 18:30:00,82.8,68.0,30.03,ENE,68,0.0,0.0,61,0.00,,---,0.00,VWS V14.01,2013-08-27 22:30:00,
2013-08-27 18:33:00,82.6,67.3,30.03,SSW,211,0.0,0.0,60,0.00,,SKC,0.00,VWS V14.01,2013-08-27 22:33:00,
2013-08-27 18:39:00,82.4,68.1,30.03,SSW,211,0.0,0.0,62,0.00,,SKC,0.00,VWS V14.01,2013-08-27 22:39:00,
2013-08-27 18:44:00,82.1,67.3,30.03,SSW,200,0.0,0.0,61,0.00,,SKC,0.00,VWS V14.01,2013-08-27 22:44:00,
2013-08-27 18:50:00,82.1,67.3,30.03,SSW,200,0.0,0.0,61,0.00,,SKC,0.00,VWS V14.01,2013-08-27 22:50:00,
2013-08-27 18:55:00,82.0,68.2,30.03,SSW,200,0.0,0.0,63,0.00,,SKC,0.00,VWS V14.01,2013-08-27 22:55:00,
2013-08-27 19:00:00,81.9,68.5,30.03,ENE,68,0.0,0.0,64,0.00,,---,0.00,VWS V14.01,2013-08-27 23:00:00,
2013-08-27 19:01:00,81.9,68.1,30.03,SSW,199,0.0,0.0,63,0.00,,SKC,0.00,VWS V14.01,2013-08-27 23:01:00,
2013-08-27 19:06:00,81.5,68.2,30.03,SSW,200,0.0,0.0,64,0.00,,SKC,0.00,VWS V14.01,2013-08-27 23:06:00,
2013-08-27 19:11:00,81.1,69.1,30.03,SSW,199,0.0,0.0,67,0.00,,SKC,0.00,VWS V14.01,2013-08-27 23:11:00,
2013-08-27 19:17:00,80.6,69.1,30.03,SSW,200,0.0,0.0,68,0.00,,SKC,0.00,VWS V14.01,2013-08-27 23:17:00,
2013-08-27 19:22:00,80.0,68.9,30.03,SSW,199,0.0,0.0,69,0.00,,SKC,0.00,VWS V14.01,2013-08-27 23:22:00,
2013-08-27 19:28:00,79.6,69.0,30.03,SSW,199,0.0,0.0,70,0.00,,SKC,0.00,VWS V14.01,2013-08-27 23:28:00,
2013-08-27 19:30:00,79.5,68.9,30.03,ENE,68,0.0,0.0,70,0.00,,---,0.00,VWS V14.01,2013-08-27 23:30:00,
2013-08-27 19:33:00,79.2,69.0,30.03,SSW,200,0.0,0.0,71,0.00,,SKC,0.00,VWS V14.01,2013-08-27 23:33:00,
2013-08-27 19:39:00,78.8,69.0,30.03,SSW,200,0.0,0.0,72,0.00,,SKC,0.00,VWS V14.01,2013-08-27 23:39:00,
2013-08-27 19:44:00,78.4,68.6,30.03,WSW,252,0.0,0.0,72,0.00,,SKC,0.00,VWS V14.01,2013-08-27 23:44:00,
2013-08-27 19:49:00,78.2,68.8,30.03,WSW,252,0.0,0.0,73,0.00,,SKC,0.00,VWS V14.01,2013-08-27 23:49:00,
2013-08-27 19:55:00,77.8,68.9,30.03,WSW,252,0.0,0.0,74,0.00,,SKC,0.00,VWS V14.01,2013-08-27 23:55:00,
2013-08-27 20:00:00,77.5,68.6,30.03,WSW,252,0.0,0.0,74,0.00,,SKC,0.00,VWS V14.01,2013-08-28 00:00:00,
2013-08-27 20:06:00,77.2,68.7,30.03,WSW,252,0.0,0.0,75,0.00,,SKC,0.00,VWS V14.01,2013-08-28 00:06:00,
2013-08-27 20:11:00,76.9,68.8,30.03,WSW,252,0.0,0.0,76,0.00,,SKC,0.00,VWS V14.01,2013-08-28 00:11:00,
2013-08-27 20:17:00,76.5,68.8,30.03,WSW,252,0.0,0.0,77,0.00,,SKC,0.00,VWS V14.01,2013-08-28 00:17:00,
2013-08-27 20:22:00,76.2,68.5,30.03,WSW,252,0.0,0.0,77,0.00,,SKC,0.00,VWS V14.01,2013-08-28 00:22:00,
2013-08-27 20:28:00,75.9,68.6,30.03,WSW,252,0.0,0.0,78,0.00,,SKC,0.00,VWS V14.01,2013-08-28 00:28:00,
2013-08-27 20:30:00,75.8,68.5,30.04,ENE,68,0.0,0.0,78,0.00,,---,0.00,VWS V14.01,2013-08-28 00:30:00,
2013-08-27 20:33:00,75.6,68.3,30.03,WSW,252,0.0,0.0,78,0.00,,SKC,0.00,VWS V14.01,2013-08-28 00:33:00,
2013-08-27 20:38:00,75.4,68.4,30.03,WSW,252,0.0,0.0,79,0.00,,SKC,0.00,VWS V14.01,2013-08-28 00:38:00,
2013-08-27 20:44:00,75.1,68.2,30.03,WSW,252,0.0,0.0,79,0.00,,SKC,0.00,VWS V14.01,2013-08-28 00:44:00,
2013-08-27 20:49:00,74.8,67.9,30.03,WSW,252,0.0,0.0,79,0.00,,SKC,0.00,VWS V14.01,2013-08-28 00:49:00,
2013-08-27 20:55:00,74.6,67.7,30.03,WSW,252,0.0,0.0,79,0.00,,SKC,0.00,VWS V14.01,2013-08-28 00:55:00,
2013-08-27 21:00:00,74.4,67.8,30.04,WSW,252,0.0,0.0,80,0.00,,SKC,0.00,VWS V14.01,2013-08-28 01:00:00,
2013-08-27 21:06:00,74.2,67.6,30.04,WSW,252,0.0,0.0,80,0.00,,SKC,0.00,VWS V14.01,2013-08-28 01:06:00,
2013-08-27 21:11:00,74.0,67.8,30.04,WSW,252,0.0,0.0,81,0.00,,SKC,0.00,VWS V14.01,2013-08-28 01:11:00,
2013-08-27 21:17:00,73.8,67.6,30.04,WSW,252,0.0,0.0,81,0.00,,SKC,0.00,VWS V14.01,2013-08-28 01:17:00,
2013-08-27 21:22:00,73.7,67.9,30.04,WSW,252,0.0,0.0,82,0.00,,SKC,0.00,VWS V14.01,2013-08-28 01:22:00,
2013-08-27 21:27:00,73.5,67.7,30.04,WSW,252,0.0,0.0,82,0.00,,SKC,0.00,VWS V14.01,2013-08-28 01:27:00,
2013-08-27 21:30:00,73.4,67.6,30.04,ENE,68,0.0,0.0,82,0.00,,---,0.00,VWS V14.01,2013-08-28 01:30:00,
2013-08-27 21:33:00,73.3,67.5,30.05,WSW,252,0.0,0.0,82,0.00,,SKC,0.00,VWS V14.01,2013-08-28 01:33:00,
2013-08-27 21:38:00,73.2,67.7,30.05,WSW,252,0.0,0.0,83,0.00,,SKC,0.00,VWS V14.01,2013-08-28 01:38:00,
2013-08-27 21:44:00,73.0,67.5,30.05,WSW,252,0.0,0.0,83,0.00,,SKC,0.00,VWS V14.01,2013-08-28 01:44:00,
2013-08-27 21:49:00,72.9,67.4,30.05,WSW,252,0.0,0.0,83,0.00,,SKC,0.00,VWS V14.01,2013-08-28 01:49:00,
2013-08-27 21:55:00,72.7,67.2,30.05,WSW,252,0.0,0.0,83,0.00,,SKC,0.00,VWS V14.01,2013-08-28 01:55:00,
2013-08-27 22:00:00,72.6,67.2,30.05,WSW,252,0.0,0.0,83,0.00,,SKC,0.00,VWS V14.01,2013-08-28 02:00:00,
2013-08-27 22:05:00,72.5,67.1,30.05,WSW,252,0.0,0.0,83,0.00,,SKC,0.00,VWS V14.01,2013-08-28 02:05:00,
2013-08-27 22:11:00,72.4,66.9,30.05,WSW,252,0.0,0.0,83,0.00,,SKC,0.00,VWS V14.01,2013-08-28 02:11:00,
2013-08-27 22:16:00,72.4,66.9,30.05,WSW,252,0.0,0.0,83,0.00,,SKC,0.00,VWS V14.01,2013-08-28 02:16:00,
2013-08-27 22:22:00,72.3,67.2,30.05,WSW,252,0.0,0.0,84,0.00,,SKC,0.00,VWS V14.01,2013-08-28 02:22:00,
2013-08-27 22:27:00,72.3,66.8,30.05,WSW,252,0.0,0.0,83,0.00,,SKC,0.00,VWS V14.01,2013-08-28 02:27:00,
2013-08-27 22:30:00,72.3,66.8,30.05,ENE,68,0.0,0.0,83,0.00,,---,0.00,VWS V14.01,2013-08-28 02:30:00,
2013-08-27 22:33:00,72.2,67.1,30.05,WSW,252,0.0,0.0,84,0.00,,SKC,0.00,VWS V14.01,2013-08-28 02:33:00,
2013-08-27 22:38:00,72.2,67.1,30.05,WSW,252,0.0,0.0,84,0.00,,SKC,0.00,VWS V14.01,2013-08-28 02:38:00,
2013-08-27 22:43:00,72.1,67.0,30.05,WSW,252,0.0,0.0,84,0.00,,SKC,0.00,VWS V14.01,2013-08-28 02:43:00,
2013-08-27 22:49:00,72.0,66.9,30.05,WSW,252,0.0,0.0,84,0.00,,SKC,0.00,VWS V14.01,2013-08-28 02:49:00,
2013-08-27 22:54:00,71.8,66.7,30.05,WSW,252,0.0,0.0,84,0.00,,SKC,0.00,VWS V14.01,2013-08-28 02:54:00,
2013-08-27 22:59:00,71.8,66.7,30.05,WSW,252,0.0,0.0,84,0.00,,SKC,0.00,VWS V14.01,2013-08-28 02:59:00,
2013-08-27 23:00:00,71.8,66.7,30.06,ENE,68,0.0,0.0,84,0.00,,---,0.00,VWS V14.01,2013-08-28 03:00:00,
2013-08-27 23:05:00,71.6,66.5,30.05,WSW,252,0.0,0.0,84,0.00,,SKC,0.00,VWS V14.01,2013-08-28 03:05:00,
2013-08-27 23:11:00,71.5,66.8,30.06,WSW,252,0.0,0.0,85,0.00,,SKC,0.00,VWS V14.01,2013-08-28 03:11:00,
2013-08-27 23:16:00,71.3,66.6,30.06,WSW,252,0.0,0.0,85,0.00,,SKC,0.00,VWS V14.01,2013-08-28 03:16:00,
2013-08-27 23:21:00,71.2,66.5,30.06,WSW,252,0.0,0.0,85,0.00,,SKC,0.00,VWS V14.01,2013-08-28 03:21:00,
2013-08-27 23:27:00,71.0,66.6,30.06,WSW,252,0.0,0.0,86,0.00,,SKC,0.00,VWS V14.01,2013-08-28 03:27:00,
2013-08-27 23:30:00,71.0,66.6,30.06,ENE,68,0.0,0.0,86,0.00,,---,0.00,VWS V14.01,2013-08-28 03:30:00,
2013-08-27 23:32:00,70.9,66.5,30.06,WSW,252,0.0,0.0,86,0.00,,SKC,0.00,VWS V14.01,2013-08-28 03:32:00,
2013-08-27 23:38:00,70.8,66.7,30.06,WSW,252,0.0,0.0,87,0.00,,SKC,0.00,VWS V14.01,2013-08-28 03:38:00,
2013-08-27 23:43:00,70.7,66.7,30.06,WSW,252,0.0,0.0,87,0.00,,SKC,0.00,VWS V14.01,2013-08-28 03:43:00,
2013-08-27 23:49:00,70.6,66.6,30.06,WSW,252,0.0,0.0,87,0.00,,SKC,0.00,VWS V14.01,2013-08-28 03:49:00,
2013-08-27 23:54:00,70.5,66.4,30.06,WSW,252,0.0,0.0,87,0.00,,SKC,0.00,VWS V14.01,2013-08-28 03:54:00,
2013-08-27 23:59:00,70.4,66.3,30.06,WSW,252,0.0,0.0,87,0.00,,SKC,0.00,VWS V14.01,2013-08-28 03:59:00,